createdAt,value
2018-09-19T00:00:36.576Z,61.13
2018-09-19T00:01:16.888Z,61.32
2018-09-19T00:01:57.398Z,61.22
2018-09-19T00:02:37.712Z,61.32
2018-09-19T00:03:18.131Z,61.32
2018-09-19T00:03:58.544Z,61.13
2018-09-19T00:04:38.930Z,60.83
2018-09-19T00:05:19.490Z,60.93
2018-09-19T00:05:59.857Z,61.22
2018-09-19T00:06:40.381Z,61.13
2018-09-19T00:07:20.700Z,61.32
2018-09-19T00:08:01.171Z,61.8
2018-09-19T00:08:41.540Z,61.9
2018-09-19T00:09:22.032Z,62.48
2018-09-19T00:10:02.368Z,62.38
2018-09-19T00:10:42.930Z,62.73
2018-09-19T00:11:23.406Z,62.83
2018-09-19T00:12:03.856Z,62.63
2018-09-19T00:12:44.196Z,62.54
2018-09-19T00:13:24.720Z,62.93
2018-09-19T00:14:05.051Z,62.83
2018-09-19T00:14:45.524Z,63.02
2018-09-19T00:15:25.863Z,63.31
2018-09-19T00:16:06.240Z,63.6
2018-09-19T00:16:46.683Z,63.21
2018-09-19T00:17:27.172Z,63.21
2018-09-19T00:18:07.603Z,63.31
2018-09-19T00:18:48.054Z,63.21
2018-09-19T00:19:28.477Z,63.21
2018-09-19T00:20:08.819Z,63.21
2018-09-19T00:20:49.267Z,63.12
2018-09-19T00:21:29.590Z,62.93
2018-09-19T00:22:10.068Z,62.73
2018-09-19T00:22:50.473Z,63.02
2018-09-19T00:23:30.996Z,63.12
2018-09-19T00:24:11.319Z,63.31
2018-09-19T00:24:51.746Z,63.41
2018-09-19T00:25:32.191Z,63.5
2018-09-19T00:26:12.639Z,63.41
2018-09-19T00:26:53.096Z,63.41
2018-09-19T00:27:33.409Z,63.28
2018-09-19T00:28:13.835Z,62.8
2018-09-19T00:28:54.357Z,63.41
2018-09-19T00:29:34.669Z,63.21
2018-09-19T00:30:15.303Z,63.21
2018-09-19T00:30:55.587Z,63.89
2018-09-19T00:31:36.136Z,64.25
2018-09-19T00:32:16.511Z,64.53
2018-09-19T00:32:56.877Z,64.34
2018-09-19T00:33:37.369Z,64.43
2018-09-19T00:34:17.734Z,65.11
2018-09-19T00:34:58.149Z,65.11
2018-09-19T00:35:38.687Z,64.92
2018-09-19T00:36:19.092Z,65.3
2018-09-19T00:36:59.516Z,65.5
2018-09-19T00:37:39.841Z,65.69
2018-09-19T00:38:20.342Z,65.5
2018-09-19T00:39:00.953Z,65.85
2018-09-19T00:39:41.249Z,65.56
2018-09-19T00:40:21.679Z,65.75
2018-09-19T00:41:02.136Z,65.75
2018-09-19T00:41:42.656Z,66.14
2018-09-19T00:42:22.974Z,65.75
2018-09-19T00:43:03.327Z,66.24
2018-09-19T00:43:43.751Z,66.14
2018-09-19T00:44:24.310Z,66.42
2018-09-19T00:45:04.626Z,66.52
2018-09-19T00:45:45.013Z,66.14
2018-09-19T00:46:25.520Z,66.14
2018-09-19T00:47:05.927Z,66.52
2018-09-19T00:47:46.496Z,66.14
2018-09-19T00:48:26.921Z,66.52
2018-09-19T00:49:07.339Z,66.33
2018-09-19T00:49:47.805Z,66.62
2018-09-19T00:50:28.333Z,66.91
2018-09-19T00:51:08.627Z,66.81
2018-09-19T00:51:49.112Z,67
2018-09-19T00:52:29.498Z,67.35
2018-09-19T00:53:09.944Z,67.68
2018-09-19T00:53:50.456Z,67.83
2018-09-19T00:54:30.820Z,66.71
2018-09-19T00:55:11.218Z,67.55
2018-09-19T00:55:51.681Z,67.26
2018-09-19T00:56:31.983Z,67.45
2018-09-19T00:57:12.404Z,67.55
2018-09-19T00:57:52.882Z,67.45
2018-09-19T00:58:33.295Z,67.55
2018-09-19T00:59:13.676Z,67.45
2018-09-19T00:59:54.145Z,67.35
2018-09-19T01:00:34.507Z,67.45
2018-09-19T01:01:14.853Z,66.88
2018-09-19T01:01:55.336Z,66.68
2018-09-19T01:02:35.758Z,66.88
2018-09-19T01:03:16.280Z,66.68
2018-09-19T01:03:56.674Z,66.78
2018-09-19T01:04:37.372Z,66.97
2018-09-19T01:05:18.003Z,66.88
2018-09-19T01:05:58.360Z,66.97
2018-09-19T01:06:38.842Z,67.26
2018-09-19T01:07:19.223Z,67.35
2018-09-19T01:07:59.657Z,67.55
2018-09-19T01:08:40.110Z,67.65
2018-09-19T01:09:20.412Z,67.65
2018-09-19T01:10:00.947Z,67.26
2018-09-19T01:10:41.452Z,67.93
2018-09-19T01:11:21.846Z,67.74
2018-09-19T01:12:02.227Z,67.65
2018-09-19T01:12:42.650Z,68.13
2018-09-19T01:13:23.031Z,68.13
2018-09-19T01:14:03.499Z,68.13
2018-09-19T01:14:43.849Z,68.8
2018-09-19T01:15:24.336Z,68.8
2018-09-19T01:16:04.809Z,68.41
2018-09-19T01:16:45.092Z,68.6
2018-09-19T01:17:25.561Z,68.13
2018-09-19T01:18:06.047Z,68.6
2018-09-19T01:18:46.431Z,68.76
2018-09-19T01:19:26.792Z,68.6
2018-09-19T01:20:07.301Z,68.9
2018-09-19T01:20:47.770Z,68.7
2018-09-19T01:21:28.189Z,69.06
2018-09-19T01:22:08.644Z,69.15
2018-09-19T01:22:49.049Z,69.34
2018-09-19T01:23:29.554Z,69.06
2018-09-19T01:24:09.815Z,68.96
2018-09-19T01:24:50.259Z,69.44
2018-09-19T01:25:30.732Z,69.44
2018-09-19T01:26:11.041Z,69.53
2018-09-19T01:26:51.420Z,69.53
2018-09-19T01:27:32.198Z,69.53
2018-09-19T01:29:21.698Z,70.21
2018-09-19T01:30:01.689Z,70.21
2018-09-19T01:30:42.186Z,70.11
2018-09-19T01:31:22.538Z,70.3
2018-09-19T01:32:02.915Z,70.21
2018-09-19T01:32:43.435Z,70.01
2018-09-19T01:33:23.835Z,70.59
2018-09-19T01:34:04.318Z,70.5
2018-09-19T01:34:44.666Z,70.88
2018-09-19T01:35:25.266Z,70.88
2018-09-19T01:36:05.520Z,71.08
2018-09-19T01:36:46.198Z,70.98
2018-09-19T01:37:26.668Z,70.98
2018-09-19T01:38:07.056Z,70.21
2018-09-19T01:38:47.399Z,70.3
2018-09-19T01:39:27.778Z,70.3
2018-09-19T01:40:08.219Z,70.01
2018-09-19T01:40:48.668Z,70.11
2018-09-19T01:41:29.003Z,70.68
2018-09-19T01:42:09.421Z,70.78
2018-09-19T01:42:49.909Z,71.17
2018-09-19T01:43:30.329Z,71.08
2018-09-19T01:44:10.836Z,70.88
2018-09-19T01:44:51.199Z,70.75
2018-09-19T01:45:31.565Z,70.65
2018-09-19T01:46:12.102Z,70.46
2018-09-19T01:46:52.455Z,71.14
2018-09-19T01:47:32.885Z,70.75
2018-09-19T01:48:13.291Z,71.04
2018-09-19T01:48:53.743Z,70.07
2018-09-19T01:49:34.060Z,70.07
2018-09-19T01:50:14.520Z,70.17
2018-09-19T01:50:54.868Z,70.46
2018-09-19T01:51:35.419Z,70.56
2018-09-19T01:52:15.732Z,70.07
2018-09-19T01:52:56.218Z,69.98
2018-09-19T01:53:36.588Z,69.98
2018-09-19T01:54:17.034Z,69.69
2018-09-19T01:54:57.481Z,69.73
2018-09-19T01:55:37.929Z,69.79
2018-09-19T01:56:18.387Z,69.53
2018-09-19T01:56:58.753Z,70.27
2018-09-19T01:57:39.362Z,70.27
2018-09-19T01:58:19.832Z,69.98
2018-09-19T01:59:00.158Z,70.07
2018-09-19T01:59:40.611Z,70.27
2018-09-19T02:00:21.109Z,70.17
2018-09-19T02:01:01.490Z,70.07
2018-09-19T02:01:41.818Z,70.37
2018-09-19T02:02:22.279Z,70.27
2018-09-19T02:03:02.674Z,70.84
2018-09-19T02:03:43.218Z,71.42
2018-09-19T02:04:23.436Z,71.33
2018-09-19T02:05:03.793Z,70.94
2018-09-19T02:05:44.293Z,71.23
2018-09-19T02:06:24.747Z,71.91
2018-09-19T02:07:05.130Z,71.61
2018-09-19T02:07:45.511Z,71.23
2018-09-19T02:08:26.027Z,71.42
2018-09-19T02:09:06.417Z,71.42
2018-09-19T02:09:46.782Z,71.81
2018-09-19T02:10:27.305Z,71.61
2018-09-19T02:11:07.737Z,71.58
2018-09-19T02:11:48.213Z,72.34
2018-09-19T02:12:43.062Z,71.61
2018-09-19T02:13:23.499Z,72.16
2018-09-19T02:14:03.862Z,72.34
2018-09-19T02:14:44.269Z,72.19
2018-09-19T02:15:24.698Z,72.19
2018-09-19T02:16:05.076Z,72.16
2018-09-19T02:16:45.447Z,72.64
2018-09-19T02:17:26.141Z,72.44
2018-09-19T02:18:06.457Z,72.54
2018-09-19T02:18:46.808Z,72.44
2018-09-19T02:19:27.475Z,72.06
2018-09-19T02:20:07.913Z,72.34
2018-09-19T02:20:48.524Z,71.87
2018-09-19T02:21:29.015Z,72.16
2018-09-19T02:22:09.429Z,72.34
2018-09-19T02:22:49.891Z,72.83
2018-09-19T02:23:30.319Z,72.25
2018-09-19T02:24:10.726Z,72.54
2018-09-19T02:24:51.119Z,73.02
2018-09-19T02:25:31.561Z,72.83
2018-09-19T02:26:11.934Z,73.02
2018-09-19T02:26:52.388Z,73.6
2018-09-19T02:27:32.909Z,73.6
2018-09-19T02:28:13.323Z,73.6
2018-09-19T02:28:53.800Z,73.31
2018-09-19T02:29:34.107Z,73.41
2018-09-19T02:30:14.446Z,73.79
2018-09-19T02:30:54.904Z,73.6
2018-09-19T02:31:35.292Z,73.5
2018-09-19T02:32:15.736Z,73.31
2018-09-19T02:32:56.063Z,73.31
2018-09-19T02:33:36.473Z,73.41
2018-09-19T02:34:16.871Z,73.11
2018-09-19T02:34:57.332Z,73.31
2018-09-19T02:35:37.727Z,73.6
2018-09-19T02:36:18.135Z,73.98
2018-09-19T02:36:58.487Z,73.88
2018-09-19T02:37:38.985Z,74.17
2018-09-19T02:38:19.298Z,74.62
2018-09-19T02:38:59.756Z,75
2018-09-19T02:39:40.182Z,75
2018-09-19T02:40:20.561Z,75
2018-09-19T02:41:00.993Z,74.9
2018-09-19T02:41:41.462Z,74.9
2018-09-19T02:42:21.771Z,75.48
2018-09-19T02:43:02.196Z,75.48
2018-09-19T02:43:42.634Z,75.67
2018-09-19T02:44:23.081Z,75.48
2018-09-19T02:45:03.629Z,75.87
2018-09-19T02:45:43.978Z,76.44
2018-09-19T02:46:24.978Z,76.25
2018-09-19T02:47:05.260Z,76.25
2018-09-19T02:47:45.671Z,75.96
2018-09-19T02:48:26.121Z,76.15
2018-09-19T02:49:06.579Z,76.15
2018-09-19T02:49:46.891Z,76.34
2018-09-19T02:50:27.646Z,76.02
2018-09-19T02:51:07.869Z,76.12
2018-09-19T02:51:48.191Z,76.44
2018-09-19T02:52:28.542Z,76.31
2018-09-19T02:53:08.951Z,76.15
2018-09-19T02:53:49.414Z,76.44
2018-09-19T02:54:30.106Z,75.87
2018-09-19T02:55:10.213Z,76.25
2018-09-19T02:55:50.657Z,76.25
2018-09-19T02:56:31.128Z,75.77
2018-09-19T02:57:11.491Z,76.5
2018-09-19T02:57:51.877Z,76.69
2018-09-19T02:58:32.440Z,76.88
2018-09-19T02:59:12.822Z,76.5
2018-09-19T02:59:53.115Z,77.08
2018-09-19T03:00:33.687Z,76.88
2018-09-19T03:01:14.207Z,77.08
2018-09-19T03:01:54.535Z,77.36
2018-09-19T03:02:35.079Z,77.46
2018-09-19T03:03:15.440Z,77.84
2018-09-19T03:03:55.870Z,78.32
2018-09-19T03:04:36.423Z,78.03
2018-09-19T03:05:16.933Z,78.86
2018-09-19T03:05:57.268Z,78.96
2018-09-19T03:06:38.818Z,79.24
2018-09-19T03:07:19.647Z,79.24
2018-09-19T03:07:59.816Z,79.44
2018-09-19T03:08:40.492Z,79.91
2018-09-19T03:09:21.004Z,79.82
2018-09-19T03:10:01.276Z,79.91
2018-09-19T03:10:41.781Z,79.91
2018-09-19T03:11:22.073Z,79.91
2018-09-19T03:12:02.491Z,79.63
2018-09-19T03:12:43.003Z,79.63
2018-09-19T03:13:23.545Z,80.01
2018-09-19T03:14:03.908Z,79.44
2018-09-19T03:14:44.356Z,80.11
2018-09-19T03:15:24.647Z,79.53
2018-09-19T03:16:05.036Z,79.44
2018-09-19T03:16:45.536Z,78.96
2018-09-19T03:17:25.988Z,78.77
2018-09-19T03:18:06.280Z,78.96
2018-09-19T03:18:46.758Z,78.86
2018-09-19T03:19:27.116Z,78.77
2018-09-19T03:20:07.569Z,79.14
2018-09-19T03:20:48.090Z,78.57
2018-09-19T03:21:28.472Z,78.77
2018-09-19T03:22:08.856Z,78.67
2018-09-19T03:22:49.293Z,78.57
2018-09-19T03:23:29.816Z,78.47
2018-09-19T03:24:10.369Z,78.19
2018-09-19T03:24:50.815Z,78.09
2018-09-19T03:25:31.465Z,78
2018-09-19T03:26:11.927Z,77.56
2018-09-19T03:26:52.440Z,77.8
2018-09-19T03:27:32.989Z,77.75
2018-09-19T03:28:13.434Z,77.46
2018-09-19T03:28:53.778Z,77.65
2018-09-19T03:29:34.519Z,77.26
2018-09-19T03:30:14.808Z,77.13
2018-09-19T03:30:55.291Z,77.36
2018-09-19T03:31:35.745Z,77.71
2018-09-19T03:32:16.142Z,77.84
2018-09-19T03:32:56.499Z,77.46
2018-09-19T03:33:36.861Z,77.46
2018-09-19T03:34:17.506Z,77.46
2018-09-19T03:34:57.833Z,77.61
2018-09-19T03:35:38.454Z,77.8
2018-09-19T03:36:18.924Z,77.94
2018-09-19T03:36:59.510Z,78.28
2018-09-19T03:37:39.931Z,78.42
2018-09-19T03:38:20.367Z,78.23
2018-09-19T03:39:00.850Z,78.19
2018-09-19T03:39:41.204Z,78.23
2018-09-19T03:40:21.754Z,78.03
2018-09-19T03:41:02.200Z,78.03
2018-09-19T03:41:43.040Z,77.84
2018-09-19T03:42:23.303Z,78.03
2018-09-19T03:43:04.017Z,78.19
2018-09-19T03:43:44.457Z,78.52
2018-09-19T03:44:24.795Z,78.32
2018-09-19T03:45:05.412Z,78.61
2018-09-19T03:45:46.089Z,78.9
2018-09-19T03:46:26.458Z,78.52
2018-09-19T03:47:06.809Z,78.8
2018-09-19T03:47:47.122Z,79.57
2018-09-19T03:48:27.559Z,79.44
2018-09-19T03:49:08.005Z,79.34
2018-09-19T03:49:48.457Z,79.72
2018-09-19T03:50:28.877Z,80.01
2018-09-19T03:51:09.329Z,79.72
2018-09-19T03:51:49.805Z,79.14
2018-09-19T03:52:30.104Z,79.47
2018-09-19T03:53:10.509Z,79.34
2018-09-19T03:53:50.894Z,79.14
2018-09-19T03:54:31.350Z,79.19
2018-09-19T03:55:11.735Z,79.14
2018-09-19T03:55:52.131Z,79.76
2018-09-19T03:56:32.531Z,79.57
2018-09-19T03:57:12.906Z,79.76
2018-09-19T03:57:53.427Z,79.67
2018-09-19T04:14:34.372Z,79.76
2018-09-19T04:15:16.198Z,79.47
2018-09-19T04:15:56.767Z,79.86
2018-09-19T04:16:37.343Z,79.67
2018-09-19T04:17:18.065Z,79.47
2018-09-19T04:17:58.456Z,79.86
2018-09-19T04:18:39.006Z,79.76
2018-09-19T04:19:19.607Z,79.76
2018-09-19T04:19:59.940Z,79.28
2018-09-19T04:20:40.475Z,79.19
2018-09-19T04:21:21.047Z,79.28
2018-09-19T04:22:01.633Z,78.9
2018-09-19T04:22:42.494Z,78.8
2018-09-19T04:23:22.697Z,78.8
2018-09-19T04:24:03.212Z,78.52
2018-09-19T04:24:43.931Z,78.42
2018-09-19T04:25:24.268Z,78.52
2018-09-19T04:26:04.808Z,78.36
2018-09-19T04:26:45.133Z,78.36
2018-09-19T04:27:25.664Z,78.27
2018-09-19T04:28:06.168Z,78.75
2018-09-19T04:28:46.680Z,78.03
2018-09-19T05:22:00.500Z,86.58
2018-09-19T05:22:53.051Z,86.4
2018-09-19T05:23:46.098Z,85.92
2018-09-19T05:24:38.537Z,85.92
2018-09-19T05:25:32.532Z,85.44
2018-09-19T05:26:25.495Z,84.67
2018-09-19T05:27:19.507Z,85.1
2018-09-19T05:28:17.000Z,85.1
2018-09-19T05:29:22.111Z,83.94
2018-09-19T05:31:40.354Z,83.65
2018-09-19T05:32:35.488Z,83.75
2018-09-19T05:33:32.033Z,83.75
2018-09-19T05:45:11.886Z,80.73
2018-09-19T05:48:02.938Z,80.05
2018-09-19T05:50:25.770Z,79.13
2018-09-19T05:51:06.382Z,78.75
2018-09-19T05:51:46.678Z,78.75
2018-09-19T05:52:27.053Z,77.92
2018-09-19T05:56:28.375Z,76.29
2018-09-19T05:57:09.620Z,76.48
2018-09-19T05:57:49.978Z,76.19
2018-09-19T05:58:30.357Z,75.9
2018-09-19T05:59:11.274Z,75.75
2018-09-19T05:59:51.798Z,75.65
2018-09-19T06:00:33.082Z,75.56
2018-09-19T06:01:13.709Z,75.52
2018-09-19T06:02:01.958Z,74.88
2018-09-19T06:02:42.916Z,74.6
2018-09-19T06:03:23.344Z,74.5
2018-09-19T06:04:03.808Z,74.02
2018-09-19T06:04:44.862Z,74.21
2018-09-19T06:05:24.968Z,73.73
2018-09-19T06:06:08.737Z,73.77
2018-09-19T06:08:29.002Z,73.19
2018-09-19T06:09:23.523Z,73.19
2018-09-19T06:10:19.296Z,73.28
2018-09-19T06:17:03.027Z,72.36
2018-09-19T06:17:52.959Z,72.26
2018-09-19T06:18:33.277Z,72.45
2018-09-19T06:19:16.937Z,72.45
2018-09-19T06:19:57.810Z,71.59
2018-09-19T06:20:38.538Z,71.3
2018-09-19T06:21:19.432Z,71.69
2018-09-19T06:22:00.279Z,71.69
2018-09-19T06:22:40.832Z,71.88
2018-09-19T06:23:21.375Z,71.43
2018-09-19T06:24:02.200Z,71.53
2018-09-19T06:24:47.765Z,71.04
2018-09-19T06:25:44.424Z,70.47
2018-09-19T06:26:33.673Z,70.09
2018-09-19T06:44:36.768Z,64.24
2018-09-19T06:45:16.791Z,63.79
2018-09-19T06:45:57.261Z,63.5
2018-09-19T06:46:37.897Z,63.6
2018-09-19T06:47:18.833Z,63.4
2018-09-19T06:47:59.646Z,63.7
2018-09-19T06:48:40.320Z,63.05
2018-09-19T06:49:21.750Z,63.73
2018-09-19T06:50:01.665Z,63.15
2018-09-19T06:50:42.152Z,62.86
2018-09-19T06:51:23.000Z,62.86
2018-09-19T06:52:03.869Z,63.15
2018-09-19T06:52:44.643Z,62.66
2018-09-19T06:53:25.138Z,63.34
2018-09-19T06:54:05.607Z,62.95
2018-09-19T06:54:46.188Z,63.53
2018-09-19T06:55:26.686Z,63.43
2018-09-19T06:56:07.389Z,63.34
2018-09-19T06:56:47.840Z,62.57
2018-09-19T07:02:34.432Z,63.15
2018-09-19T07:05:16.842Z,63.08
2018-09-19T07:05:57.415Z,63.18
2018-09-19T07:06:38.119Z,63.08
2018-09-19T07:10:36.827Z,62.4
2018-09-19T07:11:22.012Z,62.98
2018-09-19T07:12:07.984Z,62.89
2018-09-19T07:13:32.600Z,62.31
2018-09-19T07:14:15.388Z,62.05
2018-09-19T07:14:55.795Z,61.95
2018-09-19T07:16:33.762Z,61.47
2018-09-19T07:17:14.270Z,61.76
2018-09-19T07:17:55.726Z,61.5
2018-09-19T07:18:56.952Z,61.21
2018-09-19T07:19:37.433Z,61.02
2018-09-19T07:20:18.384Z,61.11
2018-09-19T07:21:00.093Z,60.66
2018-09-19T07:21:42.547Z,60.17
2018-09-19T07:22:40.533Z,60.17
2018-09-19T07:23:22.105Z,59.79
2018-09-19T07:24:02.843Z,59.11
2018-09-19T07:24:43.179Z,59.33
2018-09-19T07:25:23.643Z,59.23
2018-09-19T07:26:07.064Z,58.95
2018-09-19T07:26:47.886Z,58.85
2018-09-19T07:27:28.835Z,59.05
2018-09-19T07:28:21.113Z,58.65
2018-09-19T07:29:01.667Z,58.88
2018-09-19T07:29:42.302Z,58.65
2018-09-19T07:30:22.749Z,58.65
2018-09-19T07:31:03.325Z,59.07
2018-09-19T07:31:43.845Z,59.36
2018-09-19T07:32:24.400Z,59.07
2018-09-19T07:33:04.662Z,58.88
2018-09-19T07:33:45.323Z,58.88
2018-09-19T07:34:25.760Z,58.98
2018-09-19T07:35:06.293Z,59.36
2018-09-19T07:35:46.963Z,58.59
2018-09-19T07:36:27.947Z,58.78
2018-09-19T07:37:08.615Z,59.27
2018-09-19T07:37:48.904Z,59.17
2018-09-19T07:38:29.531Z,59.27
2018-09-19T07:39:10.518Z,59.07
2018-09-19T07:39:50.964Z,59.36
2018-09-19T07:40:31.518Z,59.07
2018-09-19T07:41:12.031Z,58.62
2018-09-19T07:41:52.775Z,58.62
2018-09-19T07:42:33.223Z,58.33
2018-09-19T07:43:13.750Z,58.78
2018-09-19T07:43:54.189Z,59.3
2018-09-19T07:44:34.906Z,59.27
2018-09-19T07:45:15.479Z,59.36
2018-09-19T07:45:56.131Z,59.84
2018-09-19T07:46:37.191Z,60.24
2018-09-19T07:47:17.815Z,60.69
2018-09-19T07:47:59.123Z,60.88
2018-09-19T07:48:40.646Z,60.69
2018-09-19T07:53:38.853Z,60.43
2018-09-19T07:56:38.051Z,60.07
2018-09-19T07:57:21.096Z,59.39
2018-09-19T07:58:01.821Z,59.2
2018-09-19T07:58:42.304Z,59.39
2018-09-19T07:59:22.901Z,59.3
2018-09-19T08:00:04.435Z,58.94
2018-09-19T08:05:25.684Z,57.51
2018-09-19T08:06:06.435Z,56.28
2018-09-19T08:06:47.224Z,55.79
2018-09-19T08:07:28.275Z,55.43
2018-09-19T08:08:08.737Z,55.43
2018-09-19T08:08:49.464Z,54.29
2018-09-19T08:09:30.321Z,54.1
2018-09-19T08:10:11.431Z,52.74
2018-09-19T08:10:52.512Z,52.28
2018-09-19T08:11:32.473Z,52.47
2018-09-19T08:12:13.572Z,51.43
2018-09-19T08:12:54.282Z,51.14
2018-09-19T08:13:34.919Z,51.36
2018-09-19T08:14:15.297Z,50.02
2018-09-19T08:14:55.787Z,48.17
2018-09-19T08:15:36.415Z,48.58
2018-09-19T08:16:17.023Z,48.68
2018-09-19T08:16:57.625Z,48.78
2018-09-19T08:17:37.834Z,49.24
2018-09-19T08:18:18.294Z,48.88
2018-09-19T08:18:59.974Z,47.61
2018-09-19T08:19:40.498Z,47.44
2018-09-19T08:20:21.269Z,47.25
2018-09-19T08:21:02.054Z,46.47
2018-09-19T08:21:42.613Z,46.37
2018-09-19T08:22:24.609Z,46.47
2018-09-19T08:23:04.964Z,46.08
2018-09-19T08:23:45.681Z,46.37
2018-09-19T08:24:27.147Z,46.17
2018-09-19T08:25:08.036Z,46.08
2018-09-19T08:25:48.358Z,46.08
2018-09-19T08:26:29.150Z,46.47
2018-09-19T08:27:10.800Z,46.47
2018-09-19T08:27:52.226Z,47.13
2018-09-19T08:28:32.772Z,47.8
2018-09-19T08:29:13.324Z,48.07
2018-09-19T08:29:53.721Z,48.56
2018-09-19T08:30:34.231Z,48.85
2018-09-19T08:31:14.781Z,48.83
2018-09-19T08:31:55.542Z,49.51
2018-09-19T08:32:36.051Z,49.41
2018-09-19T08:33:20.368Z,49.99
2018-09-19T08:34:01.720Z,49.9
2018-09-19T08:34:43.577Z,49.61
2018-09-19T08:35:23.923Z,49.32
2018-09-19T08:36:04.432Z,49.63
2018-09-19T08:36:44.989Z,49.02
2018-09-19T08:37:25.430Z,48.83
2018-09-19T08:38:06.096Z,48.83
2018-09-19T08:38:47.973Z,49.02
2018-09-19T08:39:28.035Z,48.75
2018-09-19T08:40:08.739Z,48.56
2018-09-19T08:40:49.690Z,48.07
2018-09-19T08:41:30.594Z,48.17
2018-09-19T08:42:12.387Z,47.49
2018-09-19T08:42:52.821Z,47.22
2018-09-19T08:43:33.859Z,46.56
2018-09-19T08:44:14.986Z,46
2018-09-19T08:44:55.573Z,45.81
2018-09-19T08:45:37.104Z,44.95
2018-09-19T08:46:17.527Z,44.29
2018-09-19T08:46:58.380Z,43.71
2018-09-19T08:47:39.492Z,43.43
2018-09-19T08:48:21.384Z,43.14
2018-09-19T08:49:03.948Z,43.24
2018-09-19T08:49:44.268Z,42.48
2018-09-19T08:50:24.798Z,42.29
2018-09-19T08:51:05.474Z,41.99
2018-09-19T08:51:46.325Z,41.72
2018-09-19T08:52:28.960Z,41.42
2018-09-19T08:53:08.954Z,41.83
2018-09-19T08:53:53.569Z,41.83
2018-09-19T08:54:34.004Z,41.6
2018-09-19T08:55:15.993Z,43.33
2018-09-19T08:55:57.215Z,43.61
2018-09-19T08:56:37.860Z,44.48
2018-09-19T08:57:18.463Z,44.07
2018-09-19T08:57:59.463Z,44.95
2018-09-19T08:58:39.696Z,45.05
2018-09-19T08:59:20.240Z,44.95
2018-09-19T09:00:02.014Z,44.83
2018-09-19T09:00:42.556Z,45.15
2018-09-19T09:01:23.168Z,44.76
2018-09-19T09:02:05.340Z,44.87
2018-09-19T09:02:46.054Z,43.8
2018-09-19T09:03:27.156Z,43.63
2018-09-19T09:04:07.396Z,43.43
2018-09-19T09:04:48.990Z,43.43
2018-09-19T09:05:30.127Z,43.07
2018-09-19T09:06:10.026Z,42.97
2018-09-19T09:06:50.645Z,42.29
2018-09-19T09:07:31.233Z,41.91
2018-09-19T09:08:12.659Z,41.42
2018-09-19T09:08:53.408Z,40.95
2018-09-19T09:09:34.130Z,40.84
2018-09-19T09:10:14.960Z,40.45
2018-09-19T09:10:56.119Z,40.94
2018-09-19T09:11:36.448Z,40.94
2018-09-19T09:12:16.893Z,40.74
2018-09-19T09:12:57.407Z,40.84
2018-09-19T09:13:41.332Z,40.27
2018-09-19T09:14:21.338Z,39.98
2018-09-19T09:15:02.961Z,39.88
2018-09-19T09:15:44.001Z,39.98
2018-09-19T09:16:23.817Z,40.08
2018-09-19T09:17:04.711Z,40.25
2018-09-19T09:18:00.797Z,40.35
2018-09-19T09:18:41.322Z,40.16
2018-09-19T09:19:21.855Z,40.25
2018-09-19T09:20:03.302Z,40.25
2018-09-19T09:20:42.991Z,40.74
2018-09-19T09:21:23.565Z,39.88
2018-09-19T09:22:03.905Z,39.98
2018-09-19T09:22:44.494Z,39.59
2018-09-19T09:23:25.817Z,39.22
2018-09-19T09:24:07.226Z,39.31
2018-09-19T09:24:48.592Z,38.26
2018-09-19T09:25:28.996Z,38.26
2018-09-19T09:26:09.959Z,38.16
2018-09-19T09:26:50.294Z,38.63
2018-09-19T09:27:30.883Z,38.92
2018-09-19T09:28:11.295Z,39.69
2018-09-19T09:28:52.187Z,39.96
2018-09-19T09:29:32.815Z,40.06
2018-09-19T09:30:13.349Z,40.16
2018-09-19T09:30:54.411Z,40.64
2018-09-19T09:31:34.407Z,40.16
2018-09-19T09:33:59.607Z,39.86
2018-09-19T09:34:41.794Z,40.06
2018-09-19T09:35:22.075Z,39.76
2018-09-19T09:36:03.142Z,40.25
2018-09-19T09:36:45.066Z,40.25
2018-09-19T09:37:27.941Z,39.59
2018-09-19T09:38:11.337Z,39.31
2018-09-19T09:38:52.160Z,38.53
2018-09-19T09:39:37.373Z,38.81
2018-09-19T09:40:49.182Z,38.43
2018-09-19T09:51:32.082Z,34.25
2018-09-19T09:52:13.971Z,34.03
2018-09-19T09:52:58.478Z,34.03
2018-09-19T09:53:40.477Z,34.42
2018-09-19T09:54:22.209Z,34.62
2018-09-19T09:55:04.089Z,34.51
2018-09-19T09:55:44.960Z,34.72
2018-09-19T09:56:25.788Z,34.42
2018-09-19T09:57:08.234Z,34.03
2018-09-19T09:57:49.819Z,33.74
2018-09-19T09:58:29.243Z,33.92
2018-09-19T09:59:12.532Z,33.74
2018-09-19T09:59:54.649Z,34.03
2018-09-19T10:00:37.163Z,34.21
2018-09-19T10:01:22.670Z,34.7
2018-09-19T10:02:04.928Z,34.59
2018-09-19T10:02:47.651Z,34.59
2018-09-19T10:03:29.991Z,34.51
2018-09-19T10:04:13.221Z,34.31
2018-09-19T10:04:55.497Z,34.11
2018-09-19T10:05:37.204Z,33.64
2018-09-19T10:06:43.051Z,33.44
2018-09-19T10:07:25.997Z,33.46
2018-09-19T10:08:14.047Z,32.95
2018-09-19T10:08:55.277Z,33.44
2018-09-19T10:09:34.847Z,33.25
2018-09-19T10:10:18.977Z,33.07
2018-09-19T10:11:00.521Z,32.18
2018-09-19T10:11:42.980Z,32.38
2018-09-19T10:12:23.114Z,32.57
2018-09-19T10:13:05.317Z,32.86
2018-09-19T10:13:48.573Z,33.44
2018-09-19T10:14:34.293Z,32.95
2018-09-19T10:15:19.101Z,32.97
2018-09-19T10:15:59.971Z,32.28
2018-09-19T10:16:49.149Z,32.18
2018-09-19T10:17:28.710Z,32.38
2018-09-19T10:18:13.246Z,32.5
2018-09-19T10:18:58.984Z,31.71
2018-09-19T10:19:43.285Z,32.01
2018-09-19T10:20:25.551Z,32.01
2018-09-19T10:21:09.791Z,31.53
2018-09-19T10:21:50.640Z,31.23
2018-09-19T10:22:32.939Z,30.94
2018-09-19T10:23:13.819Z,30.95
2018-09-19T10:23:55.149Z,30.85
2018-09-19T10:24:36.376Z,30.27
2018-09-19T10:25:17.326Z,30.18
2018-09-19T10:25:58.143Z,30.36
2018-09-19T10:26:39.372Z,30.76
2018-09-19T10:27:22.212Z,30.46
2018-09-19T10:28:41.696Z,31.12
2018-09-19T10:29:38.914Z,31.51
2018-09-19T11:27:51.716Z,36.08
2018-09-19T11:28:35.362Z,36.47
2018-09-19T11:29:15.564Z,36.57
2018-09-19T11:29:57.034Z,36.57
2018-09-19T11:30:39.020Z,36.47
2018-09-19T11:31:18.857Z,36.38
2018-09-19T11:32:01.042Z,36.18
2018-09-19T11:32:41.783Z,36.2
2018-09-19T11:33:22.969Z,35.71
2018-09-19T11:34:05.280Z,35.91
2018-09-19T11:34:47.569Z,35.71
2018-09-19T11:35:29.289Z,36.2
2018-09-19T11:36:18.840Z,36.28
2018-09-19T11:37:02.605Z,36.1
2018-09-19T11:37:44.505Z,35.91
2018-09-19T11:38:24.855Z,35.91
2018-09-19T11:39:06.646Z,35.53
2018-09-19T11:39:46.233Z,35.83
2018-09-19T11:40:28.550Z,35.52
2018-09-19T11:41:08.724Z,35.61
2018-09-19T11:41:49.703Z,36
2018-09-19T11:42:30.740Z,35.81
2018-09-19T11:43:11.821Z,35.91
2018-09-19T11:43:52.427Z,35.81
2018-09-19T11:44:33.552Z,35.89
2018-09-19T11:47:33.149Z,35.89
2018-09-19T11:48:13.664Z,35.81
2018-09-19T11:48:54.256Z,36.08
2018-09-19T11:49:34.746Z,36.08
2018-09-19T11:50:16.329Z,35.81
2018-09-19T11:50:57.929Z,36.1
2018-09-19T11:51:39.043Z,36.08
2018-09-19T11:52:19.171Z,36.08
2018-09-19T11:53:02.052Z,36.38
2018-09-19T11:53:43.822Z,36.08
2018-09-19T11:54:23.648Z,36.47
2018-09-19T11:55:04.911Z,36.65
2018-09-19T11:55:45.707Z,37.34
2018-09-19T11:56:27.532Z,37.73
2018-09-19T11:57:08.997Z,37.52
2018-09-19T11:57:49.772Z,37.62
2018-09-19T11:58:31.901Z,37.32
2018-09-19T11:59:11.648Z,37.32
2018-09-19T11:59:52.356Z,37.02
2018-09-19T12:00:34.351Z,37.34
2018-09-19T12:01:13.965Z,36.65
2018-09-19T12:01:55.409Z,36.55
2018-09-19T12:02:35.877Z,36.67
2018-09-19T12:03:17.877Z,36.47
2018-09-19T12:03:59.874Z,36.47
2018-09-19T12:04:40.410Z,36.18
2018-09-19T12:05:21.466Z,35.81
2018-09-19T12:06:03.321Z,35.81
2018-09-19T12:06:44.699Z,35.91
2018-09-19T12:07:25.355Z,35.81
2018-09-19T12:08:06.880Z,35.52
2018-09-19T12:08:49.417Z,35.91
2018-09-19T12:09:29.609Z,35.91
2018-09-19T12:10:11.735Z,35.81
2018-09-19T12:10:53.424Z,35.89
2018-09-19T12:11:34.914Z,35.89
2018-09-19T12:12:16.734Z,36.1
2018-09-19T12:13:00.069Z,35.81
2018-09-19T12:13:40.333Z,35.91
2018-09-19T12:14:20.890Z,36
2018-09-19T12:15:03.151Z,35.73
2018-09-19T12:15:42.738Z,35.34
2018-09-19T12:16:24.116Z,35.44
2018-09-19T12:17:05.299Z,34.84
2018-09-19T12:17:46.361Z,34.36
2018-09-19T12:28:20.822Z,34.83
2018-09-19T12:29:01.517Z,34.74
2018-09-19T12:29:42.444Z,35.03
2018-09-19T12:30:23.448Z,34.81
2018-09-19T12:31:05.681Z,35.11
2018-09-19T12:31:45.921Z,35.11
2018-09-19T12:32:27.405Z,34.62
2018-09-19T12:33:10.020Z,35.01
2018-09-19T12:33:50.176Z,35.6
2018-09-19T12:34:31.953Z,35.77